createdAt,value
2022-08-28T00:00:03.691Z,25.4
2022-08-28T00:01:03.654Z,25.3
2022-08-28T00:02:03.656Z,25.3
2022-08-28T00:03:03.761Z,25.4
2022-08-28T00:04:03.744Z,25.4
2022-08-28T00:05:03.698Z,25.4
2022-08-28T00:06:03.728Z,25.3
2022-08-28T00:07:03.652Z,25.3
2022-08-28T00:08:10.526Z,25.3
2022-08-28T00:09:04.091Z,25.3
2022-08-28T00:10:04.099Z,25.3
2022-08-28T00:11:04.107Z,25.3
2022-08-28T00:12:04.141Z,25.3
2022-08-28T00:13:04.159Z,25.3
2022-08-28T00:14:04.121Z,25.2
2022-08-28T00:15:04.099Z,25.2
2022-08-28T00:16:04.209Z,25.2
2022-08-28T00:17:04.104Z,25.2
2022-08-28T00:18:04.150Z,25.3
2022-08-28T00:19:04.121Z,25.3
2022-08-28T00:20:04.150Z,25.3
2022-08-28T00:21:04.222Z,25.3
2022-08-28T00:22:04.102Z,25.4
2022-08-28T00:23:04.122Z,25.4
2022-08-28T00:24:04.165Z,25.3
2022-08-28T00:25:04.103Z,25.3
2022-08-28T00:26:04.125Z,25.3
2022-08-28T00:27:04.120Z,25.3
2022-08-28T00:28:05.541Z,25.3
2022-08-28T00:29:04.112Z,25.3
2022-08-28T00:30:04.140Z,25.3
2022-08-28T00:31:04.190Z,25.3
2022-08-28T00:32:04.105Z,25.2
2022-08-28T00:33:04.115Z,25.2
2022-08-28T00:34:04.112Z,25.2
2022-08-28T00:35:04.119Z,25.2
2022-08-28T00:36:04.211Z,25.2
2022-08-28T00:37:04.121Z,25.2
2022-08-28T00:38:04.132Z,25.3
2022-08-28T00:39:04.132Z,25.3
2022-08-28T00:40:04.170Z,25.2
2022-08-28T00:41:04.975Z,25.2
2022-08-28T00:42:04.167Z,25.2
2022-08-28T00:43:04.158Z,25.2
2022-08-28T00:44:04.120Z,25.2
2022-08-28T00:45:04.129Z,25.2
2022-08-28T00:46:04.162Z,25.2
2022-08-28T00:47:04.143Z,25.2
2022-08-28T00:48:04.137Z,25.2
2022-08-28T00:49:04.171Z,25.2
2022-08-28T00:50:04.119Z,25.2
2022-08-28T00:51:04.121Z,25.1
2022-08-28T00:52:04.116Z,25.2
2022-08-28T00:53:04.125Z,25.2
2022-08-28T00:54:07.699Z,25.2
2022-08-28T00:55:04.682Z,25.2
2022-08-28T00:56:30.575Z,25.0
2022-08-28T00:57:04.683Z,25.1
2022-08-28T00:58:05.105Z,25.1
2022-08-28T00:59:04.723Z,25.2
2022-08-28T01:00:04.706Z,25.2
2022-08-28T01:01:04.621Z,25.2
2022-08-28T01:02:04.853Z,25.2
2022-08-28T01:03:04.817Z,25.2
2022-08-28T01:04:04.713Z,25.2
2022-08-28T01:05:11.008Z,25.1
2022-08-28T01:06:03.828Z,25.2
2022-08-28T01:07:03.775Z,25.2
2022-08-28T01:08:03.731Z,25.3
2022-08-28T01:09:03.741Z,25.3
2022-08-28T01:10:03.746Z,25.3
2022-08-28T01:11:03.718Z,25.3
2022-08-28T01:12:03.721Z,25.3
2022-08-28T01:13:03.764Z,25.3
2022-08-28T01:14:04.705Z,25.3
2022-08-28T01:15:03.754Z,25.2
2022-08-28T01:16:03.824Z,25.2
2022-08-28T01:17:03.857Z,25.2
2022-08-28T01:18:11.268Z,25.2
2022-08-28T01:19:08.131Z,25.2
2022-08-28T01:20:04.386Z,25.2
2022-08-28T01:21:04.386Z,25.2
2022-08-28T01:22:04.425Z,25.3
2022-08-28T01:23:04.660Z,25.3
2022-08-28T01:24:04.429Z,25.3
2022-08-28T01:25:04.308Z,25.3
2022-08-28T01:26:06.489Z,25.3
2022-08-28T01:27:04.974Z,25.3
2022-08-28T01:28:04.817Z,25.3
2022-08-28T01:29:04.731Z,25.3
2022-08-28T01:30:04.889Z,25.2
2022-08-28T01:31:04.850Z,25.2
2022-08-28T01:32:04.697Z,25.2
2022-08-28T01:33:04.829Z,25.2
2022-08-28T01:34:04.378Z,25.2
2022-08-28T01:35:04.743Z,25.2
2022-08-28T01:36:04.418Z,25.2
2022-08-28T01:37:04.869Z,25.2
2022-08-28T01:38:04.695Z,25.2
2022-08-28T01:39:04.648Z,25.2
2022-08-28T01:40:04.458Z,25.2
2022-08-28T01:41:05.162Z,25.1
2022-08-28T01:42:04.549Z,25.1
2022-08-28T01:43:04.839Z,25.2
2022-08-28T01:44:05.216Z,25.1
2022-08-28T01:45:04.167Z,25.1
2022-08-28T01:46:04.227Z,25.1
2022-08-28T01:47:04.879Z,25.0
2022-08-28T01:48:04.526Z,25.0
2022-08-28T01:49:04.809Z,25.0
2022-08-28T01:50:04.710Z,25.0
2022-08-28T01:51:04.783Z,25.0
2022-08-28T01:52:04.343Z,25.0
2022-08-28T01:53:04.602Z,25.0
2022-08-28T01:54:04.180Z,25.0
2022-08-28T01:55:05.244Z,25.0
2022-08-28T01:56:04.607Z,25.0
2022-08-28T01:57:04.193Z,25.0
2022-08-28T01:58:04.178Z,25.0
2022-08-28T01:59:04.181Z,25.0
2022-08-28T02:00:04.891Z,25.0
2022-08-28T02:01:04.160Z,25.0
2022-08-28T02:02:04.239Z,25.0
2022-08-28T02:03:04.192Z,25.0
2022-08-28T02:04:04.269Z,25.0
2022-08-28T02:05:04.162Z,25.0
2022-08-28T02:07:54.907Z,24.7
2022-08-28T02:08:04.750Z,24.7
2022-08-28T02:09:04.810Z,24.8
2022-08-28T02:10:04.832Z,24.9
2022-08-28T02:11:04.856Z,25.0
2022-08-28T02:12:04.838Z,25.0
2022-08-28T02:13:04.884Z,25.0
2022-08-28T02:14:05.599Z,25.0
2022-08-28T02:15:04.946Z,25.0
2022-08-28T02:16:05.653Z,25.0
2022-08-28T02:17:04.850Z,25.0
2022-08-28T02:18:04.856Z,25.0
2022-08-28T02:19:05.599Z,24.9
2022-08-28T02:20:04.843Z,25.0
2022-08-28T02:21:05.188Z,25.0
2022-08-28T02:22:04.853Z,25.0
2022-08-28T02:23:04.910Z,24.8
2022-08-28T02:24:04.904Z,24.9
2022-08-28T02:25:04.899Z,24.9
2022-08-28T02:26:04.895Z,24.8
2022-08-28T02:27:05.603Z,24.9
2022-08-28T02:28:04.843Z,24.9
2022-08-28T02:29:04.840Z,24.9
2022-08-28T02:30:04.934Z,25.0
2022-08-28T02:31:04.964Z,25.0
2022-08-28T02:32:04.867Z,25.0
2022-08-28T02:33:04.879Z,25.1
2022-08-28T02:34:04.881Z,25.1
2022-08-28T02:35:04.896Z,25.1
2022-08-28T02:36:04.845Z,25.0
2022-08-28T02:37:04.904Z,25.0
2022-08-28T02:38:04.890Z,25.0
2022-08-28T02:39:04.881Z,25.0
2022-08-28T02:40:04.966Z,25.0
2022-08-28T02:41:04.859Z,25.1
2022-08-28T02:42:04.961Z,25.1
2022-08-28T02:43:04.868Z,25.1
2022-08-28T02:44:05.709Z,25.1
2022-08-28T02:45:04.974Z,25.0
2022-08-28T02:46:04.966Z,25.0
2022-08-28T02:47:05.621Z,25.1
2022-08-28T02:48:04.981Z,25.1
2022-08-28T02:49:05.000Z,25.0
2022-08-28T02:50:04.935Z,25.0
2022-08-28T02:52:55.046Z,24.7
2022-08-28T02:53:09.763Z,24.8
2022-08-28T02:54:04.891Z,24.9
2022-08-28T02:55:04.781Z,24.9
2022-08-28T02:56:05.519Z,25.0
2022-08-28T02:57:04.889Z,25.0
2022-08-28T02:58:04.731Z,25.0
2022-08-28T02:59:04.796Z,25.0
2022-08-28T03:00:04.881Z,25.0
2022-08-28T03:01:04.694Z,24.9
2022-08-28T03:02:05.363Z,24.9
2022-08-28T03:03:04.636Z,24.8
2022-08-28T03:04:04.749Z,24.8
2022-08-28T03:05:04.889Z,24.8
2022-08-28T03:06:04.807Z,24.7
2022-08-28T03:07:04.898Z,24.7
2022-08-28T03:08:04.600Z,24.8
2022-08-28T03:09:04.711Z,24.8
2022-08-28T03:10:04.907Z,24.8
2022-08-28T03:11:04.743Z,24.8
2022-08-28T03:12:04.918Z,24.8
2022-08-28T03:13:04.610Z,24.8
2022-08-28T03:14:04.761Z,24.9
2022-08-28T03:15:04.722Z,24.9
2022-08-28T03:16:04.818Z,24.9
2022-08-28T03:17:04.753Z,24.9
2022-08-28T03:18:07.987Z,24.9
2022-08-28T03:19:04.816Z,24.9
2022-08-28T03:20:04.786Z,24.9
2022-08-28T03:21:04.851Z,24.9
2022-08-28T03:22:04.843Z,24.9
2022-08-28T03:23:04.836Z,25.0
2022-08-28T03:24:04.823Z,24.9
2022-08-28T03:25:04.820Z,24.9
2022-08-28T03:26:05.075Z,25.0
2022-08-28T03:27:04.900Z,25.0
2022-08-28T03:28:05.205Z,25.0
2022-08-28T03:29:04.875Z,24.9
2022-08-28T03:30:04.833Z,25.0
2022-08-28T03:31:04.865Z,25.0
2022-08-28T03:32:04.853Z,25.0
2022-08-28T03:33:04.845Z,25.0
2022-08-28T03:34:04.922Z,25.0
2022-08-28T03:35:05.183Z,25.0
2022-08-28T03:37:55.735Z,24.7
2022-08-28T03:38:04.648Z,24.7
2022-08-28T03:39:04.642Z,24.9
2022-08-28T03:40:04.873Z,24.9
2022-08-28T03:41:04.588Z,24.9
2022-08-28T03:42:04.732Z,24.9
2022-08-28T03:43:04.501Z,24.9
2022-08-28T03:44:04.823Z,24.9
2022-08-28T03:45:05.201Z,24.9
2022-08-28T03:46:04.867Z,24.9
2022-08-28T03:47:04.778Z,24.9
2022-08-28T03:48:04.787Z,24.9
2022-08-28T03:49:04.856Z,24.9
2022-08-28T03:50:04.944Z,24.9
2022-08-28T03:51:04.860Z,24.9
2022-08-28T03:52:04.952Z,24.9
2022-08-28T03:53:04.955Z,24.8
2022-08-28T03:54:05.437Z,24.8
2022-08-28T03:55:04.823Z,24.8
2022-08-28T03:56:04.908Z,24.7
2022-08-28T03:57:04.937Z,24.7
2022-08-28T03:58:04.901Z,24.7
2022-08-28T03:59:05.002Z,24.6
2022-08-28T04:00:04.821Z,24.6
2022-08-28T04:01:04.927Z,24.6
2022-08-28T04:02:04.876Z,24.6
2022-08-28T04:03:04.937Z,24.6
2022-08-28T04:04:04.927Z,24.6
2022-08-28T04:05:04.813Z,24.6
2022-08-28T04:06:04.905Z,24.6
2022-08-28T04:07:04.991Z,24.6
2022-08-28T04:08:05.006Z,24.5
2022-08-28T04:09:04.875Z,24.5
2022-08-28T04:10:04.916Z,24.5
2022-08-28T04:11:04.851Z,24.5
2022-08-28T04:12:04.920Z,24.5
2022-08-28T04:13:05.032Z,24.5
2022-08-28T04:14:05.446Z,24.5
2022-08-28T04:15:06.848Z,24.6
2022-08-28T04:16:06.540Z,24.6
2022-08-28T04:17:04.931Z,24.6
2022-08-28T04:18:04.942Z,24.5
2022-08-28T04:20:46.894Z,24.6
2022-08-28T04:20:57.918Z,24.3
2022-08-28T04:21:05.101Z,24.3
2022-08-28T04:22:05.564Z,24.5
2022-08-28T04:23:05.458Z,24.5
2022-08-28T04:24:07.886Z,24.5
2022-08-28T04:25:05.026Z,24.5
2022-08-28T04:26:04.994Z,24.5
2022-08-28T04:27:05.540Z,24.5
2022-08-28T04:28:05.347Z,24.5
2022-08-28T04:29:05.447Z,24.5
2022-08-28T04:30:05.646Z,24.4
2022-08-28T04:31:04.989Z,24.4
2022-08-28T04:32:05.089Z,24.4
2022-08-28T04:33:05.019Z,24.4
2022-08-28T04:34:05.538Z,24.4
2022-08-28T04:35:04.957Z,24.4
2022-08-28T04:36:05.457Z,24.4
2022-08-28T04:37:05.013Z,24.4
2022-08-28T04:38:05.761Z,24.4
2022-08-28T04:39:05.092Z,24.4
2022-08-28T04:40:04.993Z,24.4
2022-08-28T04:41:04.876Z,24.4
2022-08-28T04:42:05.027Z,24.4
2022-08-28T04:43:05.051Z,24.3
2022-08-28T04:44:05.049Z,24.3
2022-08-28T04:45:05.574Z,24.3
2022-08-28T04:46:05.030Z,24.3
2022-08-28T04:47:04.922Z,24.3
2022-08-28T04:48:05.509Z,24.3
2022-08-28T04:49:04.952Z,24.3
2022-08-28T04:50:05.150Z,24.3
2022-08-28T04:51:05.176Z,24.4
2022-08-28T04:52:05.614Z,24.4
2022-08-28T04:53:04.793Z,24.4
2022-08-28T04:54:04.831Z,24.4
2022-08-28T04:55:04.806Z,24.4
2022-08-28T04:56:04.817Z,24.4
2022-08-28T04:57:06.487Z,24.4
2022-08-28T04:58:04.796Z,24.4
2022-08-28T04:59:05.064Z,24.4
2022-08-28T05:00:04.842Z,24.4
2022-08-28T05:01:04.900Z,24.5
2022-08-28T05:02:04.821Z,24.4
2022-08-28T05:03:04.892Z,24.4
2022-08-28T05:04:04.903Z,24.4
2022-08-28T05:05:04.877Z,24.4
2022-08-28T05:06:04.778Z,24.4
2022-08-28T05:07:04.815Z,24.4
2022-08-28T05:08:05.558Z,24.4
2022-08-28T05:10:54.721Z,24.1
2022-08-28T05:11:04.538Z,24.2
2022-08-28T05:12:04.647Z,24.3
2022-08-28T05:13:04.523Z,24.3
2022-08-28T05:14:04.968Z,24.4
2022-08-28T05:15:04.668Z,24.4
2022-08-28T05:16:04.720Z,24.4
2022-08-28T05:17:04.784Z,24.4
2022-08-28T05:18:04.545Z,24.4
2022-08-28T05:19:04.658Z,24.3
2022-08-28T05:20:04.642Z,24.3
2022-08-28T05:21:04.860Z,24.2
2022-08-28T05:22:04.821Z,24.2
2022-08-28T05:23:04.672Z,24.2
2022-08-28T05:24:04.771Z,24.2
2022-08-28T05:25:04.631Z,24.2
2022-08-28T05:26:04.836Z,24.2
2022-08-28T05:27:04.840Z,24.2
2022-08-28T05:28:04.649Z,24.2
2022-08-28T05:29:05.261Z,24.2
2022-08-28T05:30:04.762Z,24.2
2022-08-28T05:31:04.801Z,24.2
2022-08-28T05:32:04.886Z,24.2
2022-08-28T05:33:04.853Z,24.2
2022-08-28T05:34:05.278Z,24.2
2022-08-28T05:35:04.910Z,24.2
2022-08-28T05:36:04.914Z,24.2
2022-08-28T05:37:04.859Z,24.2
2022-08-28T05:38:04.881Z,24.2
2022-08-28T05:39:04.834Z,24.3
2022-08-28T05:40:04.906Z,24.3
2022-08-28T05:41:04.902Z,24.3
2022-08-28T05:42:04.856Z,24.3
2022-08-28T05:43:04.919Z,24.3
2022-08-28T05:44:04.890Z,24.3
2022-08-28T05:45:04.816Z,24.3
2022-08-28T05:46:04.730Z,24.3
2022-08-28T05:47:04.877Z,24.3
2022-08-28T05:48:04.856Z,24.3
2022-08-28T05:49:09.150Z,24.3
2022-08-28T05:50:04.956Z,24.3
2022-08-28T05:51:04.884Z,24.2
2022-08-28T05:52:04.709Z,24.2
2022-08-28T05:54:54.561Z,23.9
2022-08-28T05:55:05.017Z,23.9
2022-08-28T05:56:04.991Z,24.1
2022-08-28T05:57:04.304Z,24.1
2022-08-28T05:58:04.292Z,24.1
2022-08-28T05:59:04.301Z,24.1
2022-08-28T06:00:04.297Z,24.2
2022-08-28T06:01:04.303Z,24.2
2022-08-28T06:02:04.576Z,24.2
2022-08-28T06:03:04.289Z,24.2
2022-08-28T06:04:04.339Z,24.2
2022-08-28T06:05:04.294Z,24.2
2022-08-28T06:06:04.317Z,24.2
2022-08-28T06:07:04.306Z,24.2
2022-08-28T06:08:04.321Z,24.3
2022-08-28T06:09:04.310Z,24.2
2022-08-28T06:10:04.283Z,24.2
2022-08-28T06:11:04.292Z,24.2
2022-08-28T06:12:04.316Z,24.2
2022-08-28T06:13:04.291Z,24.2
2022-08-28T06:14:04.296Z,24.2
2022-08-28T06:15:04.302Z,24.2
2022-08-28T06:16:04.383Z,24.2
2022-08-28T06:17:04.292Z,24.2
2022-08-28T06:18:04.333Z,24.1
2022-08-28T06:19:04.325Z,24.2
2022-08-28T06:20:11.033Z,24.1
2022-08-28T06:21:12.553Z,24.1
2022-08-28T06:22:07.497Z,24.1
2022-08-28T06:23:04.197Z,24.1
2022-08-28T06:24:05.211Z,24.1
2022-08-28T06:25:07.835Z,24.1
2022-08-28T06:26:04.199Z,24.1
2022-08-28T06:27:04.200Z,24.2
2022-08-28T06:28:04.188Z,24.1
2022-08-28T06:29:04.210Z,24.1
2022-08-28T06:30:10.943Z,24.0
2022-08-28T06:31:22.823Z,24.0
2022-08-28T06:32:03.764Z,24.0
2022-08-28T06:33:03.664Z,24.0
2022-08-28T06:34:03.677Z,24.0
2022-08-28T06:35:10.386Z,24.0
2022-08-28T06:36:04.340Z,24.0
2022-08-28T06:37:05.038Z,24.0
2022-08-28T06:38:04.196Z,23.9
2022-08-28T06:39:04.086Z,24.0
2022-08-28T06:40:04.135Z,24.0
2022-08-28T06:41:04.125Z,24.0
2022-08-28T06:42:04.186Z,24.0
2022-08-28T06:43:04.098Z,23.9
2022-08-28T06:44:04.094Z,23.9
2022-08-28T06:45:04.151Z,24.0
2022-08-28T06:46:04.228Z,24.0
2022-08-28T06:47:04.132Z,24.0
2022-08-28T06:48:04.085Z,24.0
2022-08-28T06:49:04.093Z,24.0
2022-08-28T06:50:04.124Z,24.0
2022-08-28T06:51:04.094Z,24.0
2022-08-28T06:52:04.113Z,24.0
2022-08-28T06:53:04.087Z,24.0
2022-08-28T06:54:04.095Z,24.0
2022-08-28T06:55:04.100Z,24.0
2022-08-28T06:56:04.107Z,24.0
2022-08-28T06:57:04.094Z,24.0
2022-08-28T06:58:04.123Z,24.0
2022-08-28T06:59:04.112Z,24.0
2022-08-28T07:00:04.099Z,24.0
2022-08-28T07:01:04.169Z,24.0
2022-08-28T07:02:04.237Z,24.0
2022-08-28T07:03:04.090Z,24.0
2022-08-28T07:04:04.143Z,24.0
2022-08-28T07:05:04.104Z,24.0
2022-08-28T07:06:04.109Z,23.9
2022-08-28T07:07:04.114Z,23.9
2022-08-28T07:08:04.103Z,23.9
2022-08-28T07:09:04.112Z,23.9
2022-08-28T07:10:04.134Z,23.9
2022-08-28T07:11:04.123Z,23.9
2022-08-28T07:12:04.183Z,23.9
2022-08-28T07:13:04.099Z,23.9
2022-08-28T07:14:04.175Z,23.9
2022-08-28T07:15:04.197Z,23.9
2022-08-28T07:16:04.166Z,23.9
2022-08-28T07:17:04.303Z,23.9
2022-08-28T07:18:04.114Z,23.9
2022-08-28T07:19:04.152Z,24.0
2022-08-28T07:20:04.122Z,24.0
2022-08-28T07:21:04.107Z,24.0
2022-08-28T07:22:04.145Z,24.1
2022-08-28T07:23:04.109Z,24.1
2022-08-28T07:25:59.987Z,23.9
2022-08-28T07:26:03.967Z,23.9
2022-08-28T07:27:03.719Z,24.1
2022-08-28T07:28:03.743Z,24.2
2022-08-28T07:29:10.363Z,24.2
2022-08-28T07:30:03.715Z,24.2
2022-08-28T07:31:03.808Z,24.3
2022-08-28T07:32:03.717Z,24.3
2022-08-28T07:33:03.725Z,24.3
2022-08-28T07:34:03.740Z,24.3
2022-08-28T07:35:03.727Z,24.3
2022-08-28T07:36:03.702Z,24.3
2022-08-28T07:37:03.707Z,24.3
2022-08-28T07:38:03.705Z,24.3
2022-08-28T07:39:03.790Z,24.3
2022-08-28T07:40:03.826Z,24.3
2022-08-28T07:41:03.727Z,24.3
2022-08-28T07:42:03.737Z,24.3
2022-08-28T07:43:03.733Z,24.3
2022-08-28T07:44:03.707Z,24.3
2022-08-28T07:45:03.744Z,24.4
2022-08-28T07:46:03.818Z,24.4
2022-08-28T07:47:03.786Z,24.4
2022-08-28T07:48:03.738Z,24.4
2022-08-28T07:49:03.723Z,24.4
2022-08-28T07:50:03.734Z,24.4
2022-08-28T07:51:03.735Z,24.4
2022-08-28T07:52:03.766Z,24.4
2022-08-28T07:53:03.739Z,24.4
2022-08-28T07:54:03.748Z,24.4
2022-08-28T07:55:03.751Z,24.5
2022-08-28T07:56:03.730Z,24.5
2022-08-28T07:57:03.743Z,24.5
2022-08-28T07:58:03.746Z,24.5
2022-08-28T07:59:03.733Z,24.5
2022-08-28T08:00:03.715Z,24.5
2022-08-28T08:01:03.774Z,24.5
2022-08-28T08:02:03.741Z,24.5
2022-08-28T08:03:03.743Z,24.5
2022-08-28T08:04:03.750Z,24.6
2022-08-28T08:05:03.729Z,24.6
2022-08-28T08:06:03.727Z,24.6
2022-08-28T08:07:03.716Z,24.6
2022-08-28T08:08:03.733Z,24.6
2022-08-28T08:09:03.724Z,24.6
2022-08-28T08:10:03.757Z,24.6
2022-08-28T08:11:03.733Z,24.7
2022-08-28T08:12:03.724Z,24.7
2022-08-28T08:13:03.728Z,24.7
2022-08-28T08:14:03.718Z,24.7
2022-08-28T08:15:03.724Z,24.7
2022-08-28T08:16:03.900Z,24.7
2022-08-28T08:17:03.720Z,24.7
2022-08-28T08:18:03.712Z,24.7
2022-08-28T08:19:03.723Z,24.7
2022-08-28T08:20:03.725Z,24.7
2022-08-28T08:21:03.728Z,24.7
2022-08-28T08:22:03.744Z,24.7
2022-08-28T08:23:03.725Z,24.7
2022-08-28T08:24:03.719Z,24.8
2022-08-28T08:25:03.729Z,24.8
2022-08-28T08:26:03.743Z,24.8
2022-08-28T08:28:06.842Z,24.8
2022-08-28T08:28:10.823Z,24.5
2022-08-28T08:29:03.756Z,24.7
2022-08-28T08:30:03.721Z,24.8
2022-08-28T08:31:03.864Z,24.8
2022-08-28T08:32:03.806Z,24.8
2022-08-28T08:33:03.742Z,24.8
2022-08-28T08:34:03.754Z,24.8
2022-08-28T08:35:04.732Z,24.8
2022-08-28T08:36:03.744Z,24.8
2022-08-28T08:37:03.746Z,24.8
2022-08-28T08:38:03.767Z,24.8
2022-08-28T08:39:06.425Z,24.9
2022-08-28T08:40:07.513Z,24.9
2022-08-28T08:41:03.736Z,24.9
2022-08-28T08:42:03.812Z,24.9
2022-08-28T08:43:03.766Z,24.9
2022-08-28T08:44:03.751Z,24.9
2022-08-28T08:45:03.726Z,24.9
2022-08-28T08:46:04.289Z,24.9
2022-08-28T08:47:03.732Z,24.9
2022-08-28T08:48:03.826Z,24.9
2022-08-28T08:49:03.766Z,24.9
2022-08-28T08:50:03.821Z,25.0
2022-08-28T08:51:03.870Z,25.0
2022-08-28T08:52:03.732Z,25.0
2022-08-28T08:53:03.751Z,25.0
2022-08-28T08:54:03.754Z,25.0
2022-08-28T08:55:03.732Z,25.0
2022-08-28T08:56:03.768Z,25.0
2022-08-28T08:57:03.760Z,25.0
2022-08-28T08:58:04.992Z,25.0
2022-08-28T08:59:03.881Z,25.0
2022-08-28T09:00:03.747Z,25.1
2022-08-28T09:01:03.778Z,25.1
2022-08-28T09:02:03.770Z,25.1
2022-08-28T09:03:03.879Z,25.1
2022-08-28T09:04:03.801Z,25.1
2022-08-28T09:05:03.740Z,25.1
2022-08-28T09:06:03.734Z,25.1
2022-08-28T09:07:03.741Z,25.1
2022-08-28T09:08:04.315Z,25.1
2022-08-28T09:09:03.751Z,25.1
2022-08-28T09:10:03.749Z,25.1
2022-08-28T09:11:03.736Z,25.1
2022-08-28T09:12:03.735Z,25.1
2022-08-28T09:13:03.765Z,25.1
2022-08-28T09:14:03.764Z,25.1
2022-08-28T09:15:03.751Z,25.1
2022-08-28T09:16:03.792Z,25.2
2022-08-28T09:17:03.962Z,25.2
2022-08-28T09:18:03.781Z,25.2
2022-08-28T09:19:03.792Z,25.2
2022-08-28T09:20:03.799Z,25.2
2022-08-28T09:21:03.745Z,25.2
2022-08-28T09:22:03.744Z,25.2
2022-08-28T09:23:12.598Z,25.2
2022-08-28T09:25:36.659Z,24.9
2022-08-28T09:26:04.347Z,25.1
2022-08-28T09:27:04.379Z,25.1
2022-08-28T09:28:04.372Z,25.2
2022-08-28T09:29:04.352Z,25.2
2022-08-28T09:30:07.491Z,25.2
2022-08-28T09:31:04.475Z,25.2
2022-08-28T09:32:04.370Z,25.2
2022-08-28T09:33:04.364Z,25.2
2022-08-28T09:34:04.367Z,25.2
2022-08-28T09:35:04.358Z,25.2
2022-08-28T09:36:04.456Z,25.2
2022-08-28T09:37:04.398Z,25.2
2022-08-28T09:38:04.366Z,25.2
2022-08-28T09:39:04.362Z,25.2
2022-08-28T09:40:04.379Z,25.2
2022-08-28T09:41:04.349Z,25.2
2022-08-28T09:42:04.386Z,25.2
2022-08-28T09:43:04.387Z,25.2
2022-08-28T09:44:04.368Z,25.2
2022-08-28T09:45:08.985Z,25.2
2022-08-28T09:46:04.744Z,25.2
2022-08-28T09:47:04.350Z,25.2
2022-08-28T09:48:04.379Z,25.3
2022-08-28T09:49:04.470Z,25.3
2022-08-28T09:50:04.375Z,25.3
2022-08-28T09:51:04.358Z,25.3
2022-08-28T09:52:04.372Z,25.3
2022-08-28T09:53:05.229Z,25.3
2022-08-28T09:54:04.370Z,25.3
2022-08-28T09:55:05.484Z,25.3
2022-08-28T09:56:04.364Z,25.3
2022-08-28T09:57:04.372Z,25.3
2022-08-28T09:58:04.373Z,25.3
2022-08-28T09:59:04.386Z,25.3
2022-08-28T10:00:04.476Z,25.3
2022-08-28T10:01:04.378Z,25.3
2022-08-28T10:02:04.485Z,25.3
2022-08-28T10:03:07.556Z,25.2
2022-08-28T10:04:04.438Z,25.2
2022-08-28T10:05:04.375Z,25.2
2022-08-28T10:06:04.373Z,25.3
2022-08-28T10:07:04.368Z,25.2
2022-08-28T10:08:04.410Z,25.2
2022-08-28T10:09:04.365Z,25.3
2022-08-28T10:10:06.569Z,25.3
2022-08-28T10:11:04.377Z,25.3
2022-08-28T10:14:01.570Z,25.0
2022-08-28T10:14:05.531Z,25.0
2022-08-28T10:15:04.266Z,25.2
2022-08-28T10:16:04.319Z,25.2
2022-08-28T10:17:04.301Z,25.2
2022-08-28T10:18:04.272Z,25.2
2022-08-28T10:19:04.394Z,25.3
2022-08-28T10:20:04.271Z,25.3
2022-08-28T10:21:04.274Z,25.3
2022-08-28T10:22:05.052Z,25.3
2022-08-28T10:23:04.494Z,25.3
2022-08-28T10:24:04.278Z,25.3
2022-08-28T10:25:04.271Z,25.3
2022-08-28T10:26:04.331Z,25.3
2022-08-28T10:27:04.284Z,25.3
2022-08-28T10:28:04.294Z,25.3
2022-08-28T10:29:04.317Z,25.3
2022-08-28T10:30:06.930Z,25.3
2022-08-28T10:31:04.323Z,25.3
2022-08-28T10:32:04.287Z,25.3
2022-08-28T10:33:04.284Z,25.4
2022-08-28T10:34:04.280Z,25.4
2022-08-28T10:35:04.302Z,25.4
2022-08-28T10:36:04.294Z,25.4
2022-08-28T10:37:04.283Z,25.4
2022-08-28T10:38:04.293Z,25.4
2022-08-28T10:39:04.266Z,25.4
2022-08-28T10:40:04.494Z,25.4
2022-08-28T10:41:04.499Z,25.4
2022-08-28T10:42:04.285Z,25.4
2022-08-28T10:43:04.286Z,25.4
2022-08-28T10:44:04.283Z,25.4
2022-08-28T10:45:04.273Z,25.4
2022-08-28T10:46:04.339Z,25.4
2022-08-28T10:47:04.319Z,25.4
2022-08-28T10:48:04.332Z,25.4
2022-08-28T10:49:04.280Z,25.5
2022-08-28T10:50:04.273Z,25.4
2022-08-28T10:51:04.295Z,25.5
2022-08-28T10:52:04.611Z,25.5
2022-08-28T10:53:04.326Z,25.5
2022-08-28T10:54:04.331Z,25.5
2022-08-28T10:55:04.288Z,25.5
2022-08-28T10:56:04.282Z,25.5
2022-08-28T10:57:04.289Z,25.5
2022-08-28T10:58:04.289Z,25.5
2022-08-28T10:59:04.298Z,25.5
2022-08-28T11:00:04.299Z,25.5
2022-08-28T11:01:04.317Z,25.5
2022-08-28T11:02:04.284Z,25.5
2022-08-28T11:03:04.322Z,25.5
2022-08-28T11:04:04.304Z,25.5
2022-08-28T11:05:04.308Z,25.5
2022-08-28T11:06:04.275Z,25.5
2022-08-28T11:07:04.298Z,25.5
2022-08-28T11:08:04.293Z,25.5
2022-08-28T11:09:04.301Z,25.5
2022-08-28T11:10:04.287Z,25.5
2022-08-28T11:11:04.314Z,25.5
2022-08-28T11:12:04.304Z,25.5
2022-08-28T11:13:04.334Z,25.5
2022-08-28T11:14:04.319Z,25.5
2022-08-28T11:15:04.301Z,25.5
2022-08-28T11:16:04.283Z,25.5
2022-08-28T11:17:04.353Z,25.5
2022-08-28T11:18:50.251Z,25.5
2022-08-28T11:19:55.228Z,25.2
2022-08-28T11:20:05.205Z,25.3
2022-08-28T11:21:05.944Z,25.5
2022-08-28T11:22:05.209Z,25.5
2022-08-28T11:23:05.230Z,25.5
2022-08-28T11:24:05.217Z,25.5
2022-08-28T11:25:09.442Z,25.5
2022-08-28T11:26:05.237Z,25.5
2022-08-28T11:27:05.302Z,25.5
2022-08-28T11:28:05.216Z,25.5
2022-08-28T11:29:05.215Z,25.5
2022-08-28T11:30:05.249Z,25.5
2022-08-28T11:31:05.361Z,25.5
2022-08-28T11:32:05.290Z,25.6
2022-08-28T11:33:05.217Z,25.6
2022-08-28T11:34:05.235Z,25.6
2022-08-28T11:35:05.216Z,25.6
2022-08-28T11:36:05.218Z,25.6
2022-08-28T11:37:05.211Z,25.6
2022-08-28T11:38:05.285Z,25.6
2022-08-28T11:39:05.224Z,25.6
2022-08-28T11:40:05.380Z,25.6
2022-08-28T11:41:05.209Z,25.6
2022-08-28T11:42:05.232Z,25.6
2022-08-28T11:43:05.210Z,25.6
2022-08-28T11:44:05.282Z,25.6
2022-08-28T11:45:05.229Z,25.6
2022-08-28T11:46:05.384Z,25.6
2022-08-28T11:47:05.222Z,25.6
2022-08-28T11:48:05.235Z,25.7
2022-08-28T11:49:05.462Z,25.7
2022-08-28T11:50:05.229Z,25.7
2022-08-28T11:51:05.203Z,25.7
2022-08-28T11:52:05.276Z,25.7
2022-08-28T11:53:05.235Z,25.7
2022-08-28T11:54:05.239Z,25.7
2022-08-28T11:55:05.263Z,25.7
2022-08-28T11:56:05.293Z,25.7
2022-08-28T11:57:05.230Z,25.7
2022-08-28T11:58:18.800Z,25.6
2022-08-28T11:59:08.060Z,25.7
2022-08-28T12:00:04.818Z,25.7
2022-08-28T12:01:04.605Z,25.7
2022-08-28T12:02:04.708Z,25.7
2022-08-28T12:03:04.792Z,25.7
2022-08-28T12:04:08.037Z,25.8
2022-08-28T12:05:04.801Z,25.7
2022-08-28T12:06:04.869Z,25.8
2022-08-28T12:07:05.069Z,25.8
2022-08-28T12:08:05.061Z,25.8
2022-08-28T12:09:05.812Z,25.8
2022-08-28T12:10:05.232Z,25.8
2022-08-28T12:11:04.813Z,25.8
2022-08-28T12:12:05.506Z,25.8
2022-08-28T12:13:04.838Z,25.8
2022-08-28T12:14:04.982Z,25.8
2022-08-28T12:15:04.947Z,25.8
2022-08-28T12:16:05.070Z,25.8
2022-08-28T12:17:04.859Z,25.8
2022-08-28T12:18:04.901Z,25.8
2022-08-28T12:19:04.984Z,25.8
2022-08-28T12:20:04.840Z,25.8
2022-08-28T12:21:04.885Z,25.8
2022-08-28T12:22:04.893Z,25.8
2022-08-28T12:23:05.510Z,25.8
2022-08-28T12:24:09.110Z,25.8
2022-08-28T12:25:05.468Z,25.8
2022-08-28T12:26:04.997Z,25.8
2022-08-28T12:27:05.019Z,25.8
2022-08-28T12:28:06.793Z,25.8
2022-08-28T12:29:04.870Z,25.8
2022-08-28T12:30:04.922Z,25.9
2022-08-28T12:31:04.945Z,25.9
2022-08-28T12:32:05.429Z,25.9
2022-08-28T12:33:04.911Z,25.9
2022-08-28T12:34:04.891Z,25.9
2022-08-28T12:35:04.883Z,25.9
2022-08-28T12:36:04.853Z,25.9
2022-08-28T12:37:05.040Z,26.0
2022-08-28T12:38:05.328Z,26.0
2022-08-28T12:39:04.797Z,26.0
2022-08-28T12:41:54.796Z,25.7
2022-08-28T12:42:04.975Z,25.8
2022-08-28T12:43:04.902Z,25.9
2022-08-28T12:44:04.722Z,26.0
2022-08-28T12:45:05.576Z,26.0
2022-08-28T12:46:04.654Z,26.0
2022-08-28T12:47:04.642Z,26.0
2022-08-28T12:48:04.646Z,26.0
2022-08-28T12:49:04.711Z,26.0
2022-08-28T12:50:04.803Z,26.1
2022-08-28T12:51:04.826Z,26.1
2022-08-28T12:52:04.861Z,26.1
2022-08-28T12:53:05.022Z,26.1
2022-08-28T12:54:04.954Z,26.1
2022-08-28T12:55:05.437Z,26.2
2022-08-28T12:56:04.637Z,26.2
2022-08-28T12:57:04.719Z,26.2
2022-08-28T12:58:04.988Z,26.2
2022-08-28T12:59:04.759Z,26.2
2022-08-28T13:00:04.682Z,26.2
2022-08-28T13:01:04.961Z,26.2
2022-08-28T13:02:04.763Z,26.2
2022-08-28T13:03:04.925Z,26.2
2022-08-28T13:04:05.253Z,26.3
2022-08-28T13:05:05.076Z,26.3
2022-08-28T13:06:04.679Z,26.3
2022-08-28T13:07:04.703Z,26.3
2022-08-28T13:08:04.508Z,26.3
2022-08-28T13:09:04.917Z,26.3
2022-08-28T13:10:04.630Z,26.3
2022-08-28T13:11:04.819Z,26.3
2022-08-28T13:12:07.232Z,26.4
2022-08-28T13:13:05.958Z,26.4
2022-08-28T13:14:04.964Z,26.3
2022-08-28T13:15:04.941Z,26.3
2022-08-28T13:16:04.758Z,26.4
2022-08-28T13:17:04.399Z,26.4
2022-08-28T13:18:04.661Z,26.4
2022-08-28T13:19:04.574Z,26.4
2022-08-28T13:20:04.790Z,26.4
2022-08-28T13:21:04.687Z,26.4
2022-08-28T13:22:04.610Z,26.4
2022-08-28T13:23:04.508Z,26.4
2022-08-28T13:24:05.337Z,26.5
2022-08-28T13:25:04.663Z,26.5
2022-08-28T13:26:31.209Z,26.3
2022-08-28T13:27:04.172Z,26.4